Pottersville, New York
Current Conditions -  °F | °C
As of 7:53 AM on Saturday 20 Dec 2014 (Local Time) from KGFL Reporting Station
Overcast Overcast  
Wind Chill: 19°   Ceiling: 1600
Heat Index: 19°   Visibility: 10mi
Dew Point: 15°   Wind: 0mph
Humidity: 85%   Direction: NA
Pressure: 30.33"   Gusts: NA
Location:  43.73°N, 73.82°W
Report Text: KGFL 201253Z AUTO 00000KT 10SM OVC016 M07/M09 A3033 RMK AO2 SLP281 T10721094
Loading
Personal Weather Stations






























Interactive Weather Map New forecast layout! Learn more

10-Day Weather Forecast

Advertisements
Track Severe Weather on mobile